Time;durP1;ratioP1;P1;durP2;ratioP2;P2;SDS_P1;SDS_P2;PMS_P1;PMS_P2;Temp;Humidity;BMP_temperature;BMP_pressure;BME280_temperature;BME280_humidity;BME280_pressure;Samples;Min_cycle;Max_cycle;Signal;HPM_P1;HPM_P2
2021/12/29 00:01:23;;;;;;;;;5.50;2.00;;;;;12.32;65.03;100058.38;5107045;27;46222;-75
2021/12/29 00:03:49;;;;;;;;;8.25;3.50;;;;;12.30;64.80;100070.84;5087350;27;46325;-77
2021/12/29 00:06:14;;;;;;;;;2.00;2.00;;;;;12.32;64.83;100068.06;5099467;27;45625;-76
2021/12/29 00:08:40;;;;;;;;;3.50;3.00;;;;;12.29;64.82;100063.06;5112597;27;45608;-78
2021/12/29 00:11:06;;;;;;;;;8.50;3.00;;;;;12.29;64.91;100076.22;5092927;27;46318;-76
2021/12/29 00:13:31;;;;;;;;;8.50;3.25;;;;;12.29;65.06;100076.22;5090196;27;48011;-74
2021/12/29 00:15:58;;;;;;;;;2.50;2.00;;;;;12.23;64.96;100072.31;5092113;27;45901;-77
2021/12/29 00:18:29;;;;;;;;;6.00;1.50;;;;;12.28;65.34;100085.06;5092861;27;45789;-74
2021/12/29 00:20:56;;;;;;;;;5.00;3.50;;;;;12.23;65.39;100074.13;5092642;27;46772;-75
2021/12/29 00:23:22;;;;;;;;;5.00;3.25;;;;;12.26;65.19;100108.81;5106276;27;46015;-75
2021/12/29 00:25:47;;;;;;;;;5.00;3.00;;;;;12.28;65.27;100127.06;5097184;27;45777;-74
2021/12/29 00:28:14;;;;;;;;;2.00;0.50;;;;;12.27;65.59;100122.78;5093165;27;45873;-73
2021/12/29 00:30:41;;;;;;;;;4.50;2.00;;;;;12.25;65.75;100128.19;5100751;27;46106;-76
2021/12/29 00:33:06;;;;;;;;;3.75;1.75;;;;;12.24;65.74;100133.56;5101850;27;47152;-76
2021/12/29 00:35:34;;;;;;;;;5.00;2.75;;;;;12.23;66.04;100137.16;5098747;27;46192;-79
2021/12/29 00:38:02;;;;;;;;;4.00;3.00;;;;;12.25;65.84;100148.34;5096028;27;45800;-75
2021/12/29 00:40:27;;;;;;;;;3.75;2.50;;;;;12.22;65.92;100136.31;5092497;27;46565;-76
2021/12/29 00:42:53;;;;;;;;;4.00;2.25;;;;;12.22;66.09;100132.84;5093822;27;47514;-75
2021/12/29 00:45:18;;;;;;;;;5.50;4.00;;;;;12.21;66.41;100142.53;5100290;27;46083;-75
2021/12/29 00:47:44;;;;;;;;;7.75;4.25;;;;;12.17;66.51;100151.63;5099213;27;45763;-74
2021/12/29 00:50:13;;;;;;;;;5.75;4.00;;;;;12.14;66.61;100144.03;5094504;27;47437;-77
2021/12/29 00:52:39;;;;;;;;;5.00;3.00;;;;;12.15;66.65;100148.28;5097125;27;47197;-78
2021/12/29 00:55:05;;;;;;;;;5.75;2.00;;;;;12.07;66.75;100138.44;5103888;27;45865;-76
2021/12/29 00:57:31;;;;;;;;;2.00;1.75;;;;;12.16;66.71;100153.41;5101539;27;45854;-77
2021/12/29 00:59:56;;;;;;;;;9.75;3.00;;;;;12.17;66.91;100146.38;5100956;27;47581;-76
2021/12/29 01:02:22;;;;;;;;;5.00;2.50;;;;;12.16;67.00;100150.78;5097600;27;45590;-77
2021/12/29 01:04:48;;;;;;;;;8.25;4.50;;;;;12.09;67.00;100136.50;5091846;27;45756;-78
2021/12/29 01:07:15;;;;;;;;;7.75;3.00;;;;;12.18;66.94;100153.28;5107170;27;46111;-77
2021/12/29 01:09:44;;;;;;;;;4.50;2.50;;;;;12.13;67.30;100140.56;5104879;27;45756;-76
2021/12/29 01:12:14;;;;;;;;;7.50;5.00;;;;;12.17;67.41;100154.25;5091432;27;46403;-76
2021/12/29 01:14:43;;;;;;;;;6.00;2.75;;;;;12.12;67.39;100145.94;5100628;27;45658;-75
2021/12/29 01:17:09;;;;;;;;;6.25;3.00;;;;;12.17;67.46;100175.25;5109082;27;45762;-76
2021/12/29 01:19:34;;;;;;;;;5.50;2.25;;;;;12.09;67.65;100161.97;5092090;27;46220;-74
2021/12/29 01:22:01;;;;;;;;;4.50;3.00;;;;;12.13;67.60;100164.19;5104971;27;46161;-76
2021/12/29 01:24:28;;;;;;;;;4.00;3.25;;;;;12.19;67.41;100165.47;5092146;27;45982;-75
2021/12/29 01:26:55;;;;;;;;;3.00;2.75;;;;;12.19;67.44;100168.94;5095356;27;45652;-75
2021/12/29 01:29:21;;;;;;;;;5.00;2.50;;;;;12.11;67.48;100158.22;5095244;27;47650;-73
2021/12/29 01:31:47;;;;;;;;;6.75;4.75;;;;;12.19;67.72;100166.31;5108668;27;46042;-74
2021/12/29 01:34:13;;;;;;;;;6.50;4.25;;;;;12.19;67.57;100150.56;5098622;27;45858;-76
2021/12/29 01:36:40;;;;;;;;;5.50;4.25;;;;;12.24;67.59;100160.66;5097063;27;45739;-77
2021/12/29 01:39:09;;;;;;;;;7.75;3.25;;;;;12.26;67.51;100158.72;5105728;27;47747;-77
2021/12/29 01:41:35;;;;;;;;;7.75;5.00;;;;;12.28;67.87;100164.69;5095737;27;46149;-76
2021/12/29 01:44:02;;;;;;;;;7.00;2.00;;;;;12.28;67.66;100159.44;5106195;27;46041;-75
2021/12/29 01:46:27;;;;;;;;;5.00;2.50;;;;;12.30;67.80;100156.69;5095069;27;45797;-77
2021/12/29 01:48:53;;;;;;;;;8.00;3.75;;;;;12.29;67.50;100158.47;5095102;27;45813;-77
2021/12/29 01:51:20;;;;;;;;;7.50;2.50;;;;;12.34;67.87;100161.53;5107749;27;46093;-76
2021/12/29 01:53:50;;;;;;;;;7.25;3.00;;;;;12.36;67.64;100161.41;5094561;27;46936;-76
2021/12/29 01:56:16;;;;;;;;;10.75;3.00;;;;;12.36;67.47;100159.59;5113239;27;45791;-75
2021/12/29 01:58:42;;;;;;;;;2.75;2.75;;;;;12.39;67.78;100169.84;5103121;27;46287;-78
2021/12/29 02:01:08;;;;;;;;;8.25;3.00;;;;;12.41;67.64;100167.94;5078626;27;46081;-75
2021/12/29 02:03:33;;;;;;;;;3.50;2.00;;;;;12.40;67.47;100176.78;5094412;27;45742;-75
2021/12/29 02:05:58;;;;;;;;;3.75;3.00;;;;;12.41;67.83;100185.50;5099251;27;45777;-78
2021/12/29 02:08:24;;;;;;;;;5.25;3.00;;;;;12.42;67.66;100179.25;5103120;27;46411;-75
2021/12/29 02:10:56;;;;;;;;;3.00;2.00;;;;;12.41;67.66;100190.75;5089871;27;46101;-75
2021/12/29 02:13:23;;;;;;;;;7.25;3.00;;;;;12.40;67.65;100186.44;5075945;27;45715;-76
2021/12/29 02:15:48;;;;;;;;;4.75;2.75;;;;;12.37;67.81;100182.28;5108204;27;45769;-75
2021/12/29 02:18:15;;;;;;;;;6.00;3.25;;;;;12.38;68.03;100177.84;5094684;27;47355;-75
2021/12/29 02:20:44;;;;;;;;;5.00;4.00;;;;;12.38;67.78;100178.69;5110317;27;46147;-75
2021/12/29 02:23:15;;;;;;;;;4.00;1.25;;;;;12.40;67.65;100176.78;5101926;27;45882;-75
2021/12/29 02:25:49;;;;;;;;;5.25;3.00;;;;;12.39;67.92;100174.28;5101577;27;45996;-76
2021/12/29 02:28:25;;;;;;;;;3.50;2.50;;;;;12.39;68.03;100172.47;5099957;27;47611;-75
2021/12/29 02:30:50;;;;;;;;;6.00;4.25;;;;;12.35;68.01;100171.09;5089439;27;48063;-76
2021/12/29 02:33:17;;;;;;;;;4.75;4.00;;;;;12.42;67.86;100185.34;5100780;27;45767;-75
2021/12/29 02:35:44;;;;;;;;;7.00;4.00;;;;;12.42;67.87;100180.09;5103977;27;45624;-75
2021/12/29 02:38:31;;;;;;;;;5.25;2.00;;;;;12.42;67.84;100184.50;5092808;27;46589;-74
2021/12/29 02:41:00;;;;;;;;;4.75;3.00;;;;;12.40;68.11;100181.19;5081711;27;47097;-74
2021/12/29 02:43:27;;;;;;;;;2.50;2.00;;;;;12.42;67.91;100185.34;5093369;27;45673;-74
2021/12/29 02:46:00;;;;;;;;;3.25;2.00;;;;;12.39;67.91;100169.00;5107838;27;45672;-75
2021/12/29 02:48:33;;;;;;;;;6.25;3.00;;;;;12.40;67.98;100157.56;5109549;27;46286;-75
2021/12/29 02:51:00;;;;;;;;;2.25;2.00;;;;;12.39;67.86;100161.13;5099776;27;46575;-74
2021/12/29 02:53:26;;;;;;;;;3.25;2.75;;;;;12.41;67.91;100156.59;5093211;27;45683;-74
2021/12/29 02:55:53;;;;;;;;;7.00;2.75;;;;;12.43;68.24;100162.53;5094151;27;45929;-75
2021/12/29 02:58:20;;;;;;;;;2.75;1.75;;;;;12.45;67.85;100169.31;5088509;27;48408;-75
2021/12/29 03:00:46;;;;;;;;;3.50;2.00;;;;;12.45;67.94;100164.06;5095189;27;45997;-74
2021/12/29 03:03:26;;;;;;;;;4.50;2.75;;;;;12.46;68.20;100167.53;5095795;27;45982;-74
2021/12/29 03:05:52;;;;;;;;;4.25;2.25;;;;;12.50;68.18;100163.66;5097276;27;45765;-76
2021/12/29 03:08:20;;;;;;;;;3.00;2.00;;;;;12.46;68.09;100157.88;5104604;27;45647;-76
2021/12/29 03:10:47;;;;;;;;;3.00;2.25;;;;;12.53;68.00;100169.47;5100807;27;46000;-76
2021/12/29 03:13:13;;;;;;;;;3.00;2.00;;;;;12.55;68.12;100164.09;5103713;27;45716;-76
2021/12/29 03:15:39;;;;;;;;;2.25;1.00;;;;;12.57;67.76;100165.66;5099711;27;45680;-75
2021/12/29 03:18:06;;;;;;;;;2.75;2.75;;;;;12.58;67.72;100169.91;5104494;27;45624;-74
2021/12/29 03:20:32;;;;;;;;;4.00;3.00;;;;;12.60;68.06;100161.91;5085420;27;48073;-76
2021/12/29 03:22:58;;;;;;;;;3.50;2.25;;;;;12.59;67.86;100166.34;5104223;27;45861;-78
2021/12/29 03:25:24;;;;;;;;;3.00;1.75;;;;;12.54;67.73;100150.13;5099934;27;45460;-76
2021/12/29 03:27:50;;;;;;;;;3.00;2.00;;;;;12.46;68.13;100144.72;5103003;27;47601;-77
2021/12/29 03:30:16;;;;;;;;;3.75;1.50;;;;;12.59;67.93;100168.97;5102551;27;46338;-76
2021/12/29 03:32:50;;;;;;;;;3.00;2.00;;;;;12.53;68.05;100164.22;5093645;27;45890;-75
2021/12/29 03:35:16;;;;;;;;;6.75;3.00;;;;;12.58;68.34;100180.44;5098263;27;45855;-76
2021/12/29 03:37:43;;;;;;;;;3.75;2.00;;;;;12.58;67.97;100171.72;5083198;27;47402;-77
2021/12/29 03:40:10;;;;;;;;;2.50;1.50;;;;;12.62;68.18;100170.50;5098950;27;46124;-78
2021/12/29 03:42:36;;;;;;;;;3.75;3.50;;;;;12.62;68.21;100162.63;5100950;27;45701;-77
2021/12/29 03:45:02;;;;;;;;;5.25;2.75;;;;;12.63;68.18;100163.47;5106724;27;45696;-76
2021/12/29 03:47:28;;;;;;;;;4.50;2.50;;;;;12.63;68.33;100168.72;5106196;27;46557;-77
2021/12/29 03:49:53;;;;;;;;;4.00;3.00;;;;;12.63;68.59;100164.28;5094218;27;45922;-76
2021/12/29 03:52:18;;;;;;;;;2.50;2.00;;;;;12.60;68.36;100157.50;5104579;27;46176;-78
2021/12/29 03:54:44;;;;;;;;;2.75;2.00;;;;;12.63;68.02;100158.19;5097927;27;46674;-78
2021/12/29 03:57:09;;;;;;;;;3.00;2.00;;;;;12.61;68.19;100159.16;5091549;27;47485;-76
2021/12/29 03:59:36;;;;;;;;;2.50;1.75;;;;;12.65;68.25;100154.47;5106695;27;46070;-77
2021/12/29 04:02:02;;;;;;;;;7.50;2.00;;;;;12.62;68.26;100149.47;5082890;27;45744;-76
2021/12/29 04:04:28;;;;;;;;;3.00;2.50;;;;;12.68;68.14;100148.13;5106831;27;45680;-76
2021/12/29 04:06:53;;;;;;;;;1.50;1.50;;;;;12.68;68.20;100148.13;5109698;27;46288;-77
2021/12/29 04:09:19;;;;;;;;;2.00;2.00;;;;;12.67;68.54;100152.53;5099758;27;45922;-77
2021/12/29 04:11:50;;;;;;;;;4.50;3.00;;;;;12.70;68.30;100154.06;5103396;27;46399;-77
2021/12/29 04:14:20;;;;;;;;;4.75;3.00;;;;;12.68;68.61;100156.84;5106374;27;45895;-78
2021/12/29 04:16:47;;;;;;;;;4.00;2.00;;;;;12.65;68.61;100154.47;5104139;27;46419;-77
2021/12/29 04:19:28;;;;;;;;;2.50;2.00;;;;;12.64;68.66;100160.66;5097915;27;45688;-77
2021/12/29 04:21:55;;;;;;;;;3.00;1.50;;;;;12.67;68.37;100168.31;5105897;27;46410;-76
2021/12/29 04:24:20;;;;;;;;;3.25;2.00;;;;;12.66;68.66;100164.00;5102412;27;45730;-76
2021/12/29 04:26:45;;;;;;;;;2.00;1.50;;;;;12.66;68.51;100161.38;5103739;27;45625;-75
2021/12/29 04:29:13;;;;;;;;;2.50;1.00;;;;;12.66;68.93;100157.91;5099343;27;46140;-76
2021/12/29 04:31:39;;;;;;;;;3.00;1.50;;;;;12.63;68.64;100156.41;5105611;27;45791;-75
2021/12/29 04:34:04;;;;;;;;;1.50;1.50;;;;;12.63;69.23;100156.41;5077862;27;45620;-76
2021/12/29 04:36:30;;;;;;;;;2.50;1.00;;;;;12.63;68.97;100159.84;5105784;27;47463;-76
2021/12/29 04:38:58;;;;;;;;;3.00;1.25;;;;;12.58;69.00;100153.31;5095434;27;45967;-77
2021/12/29 04:41:23;;;;;;;;;4.25;1.00;;;;;12.60;69.25;100161.91;5095569;27;45819;-76
2021/12/29 04:43:49;;;;;;;;;2.50;1.00;;;;;12.50;69.22;100146.13;5105294;27;45558;-77
2021/12/29 04:46:16;;;;;;;;;3.00;2.00;;;;;12.57;69.42;100147.25;5106147;27;46515;-78
2021/12/29 04:48:49;;;;;;;;;2.75;1.00;;;;;12.57;69.30;100152.50;5077121;27;47416;-78
2021/12/29 04:51:22;;;;;;;;;0.50;0.50;;;;;12.58;69.39;100148.91;5102813;27;46063;-76
2021/12/29 04:53:48;;;;;;;;;1.75;1.00;;;;;12.57;69.59;100141.16;5102405;27;45704;-75
2021/12/29 04:56:15;;;;;;;;;1.50;1.00;;;;;12.57;69.67;100149.88;5099151;27;46408;-76
2021/12/29 04:58:41;;;;;;;;;1.25;0.25;;;;;12.57;69.59;100139.38;5109993;27;46034;-78
2021/12/29 05:01:07;;;;;;;;;1.00;1.00;;;;;12.56;69.53;100140.34;5105797;27;45660;-74
2021/12/29 05:03:33;;;;;;;;;1.25;0.25;;;;;12.55;69.77;100133.41;5112922;27;45840;-76
2021/12/29 05:08:30;;;;;;;;;1.00;0.00;;;;;12.52;69.76;100119.72;5104333;27;46373;-75
2021/12/29 05:11:02;;;;;;;;;0.75;0.75;;;;;12.58;69.74;100127.88;5095626;27;45611;-77
2021/12/29 05:13:30;;;;;;;;;2.00;1.50;;;;;12.56;69.99;100126.34;5095838;27;46084;-77
2021/12/29 05:15:56;;;;;;;;;2.00;1.00;;;;;12.63;70.04;100121.41;5095660;27;46703;-76
2021/12/29 05:18:24;;;;;;;;;1.00;0.75;;;;;12.63;69.60;100119.63;5095607;27;45900;-73
2021/12/29 05:20:50;;;;;;;;;1.50;1.00;;;;;12.62;69.94;100112.69;5098892;27;46508;-77
2021/12/29 05:23:16;;;;;;;;;2.00;1.50;;;;;12.65;69.91;100112.41;5094844;27;45658;-78
2021/12/29 05:25:41;;;;;;;;;0.75;0.75;;;;;12.66;69.79;100108.81;5095589;27;47732;-74
2021/12/29 05:28:07;;;;;;;;;2.00;1.00;;;;;12.67;69.91;100113.13;5095409;27;46124;-75
2021/12/29 05:30:34;;;;;;;;;2.00;1.50;;;;;12.65;69.94;100101.91;5100697;27;45826;-75
2021/12/29 05:32:59;;;;;;;;;2.00;1.00;;;;;12.67;70.09;100107.84;5105711;27;45920;-74
2021/12/29 05:35:24;;;;;;;;;3.75;2.50;;;;;12.64;70.01;100100.22;5094809;27;47240;-75
2021/12/29 05:37:50;;;;;;;;;3.00;2.00;;;;;12.70;70.21;100104.13;5095208;27;45996;-76
2021/12/29 05:40:15;;;;;;;;;3.25;2.25;;;;;12.70;70.20;100096.22;5067316;27;45709;-75
2021/12/29 05:42:42;;;;;;;;;4.25;3.75;;;;;12.71;70.27;100087.38;5101535;27;45728;-77
2021/12/29 05:45:11;;;;;;;;;3.00;2.25;;;;;12.69;70.44;100102.44;5108057;27;46423;-77
2021/12/29 05:47:37;;;;;;;;;3.75;2.75;;;;;12.69;70.40;100108.53;5106917;27;46219;-75
2021/12/29 05:50:05;;;;;;;;;4.00;3.50;;;;;12.64;70.41;100092.34;5095103;27;45811;-75
2021/12/29 05:52:31;;;;;;;;;3.25;3.00;;;;;12.68;70.38;100083.25;5095747;27;45719;-78
2021/12/29 05:54:58;;;;;;;;;3.50;3.00;;;;;12.69;70.81;100091.94;5094932;27;45746;-77
2021/12/29 05:57:23;;;;;;;;;4.00;4.00;;;;;12.68;70.51;100083.25;5102851;27;47665;-78
2021/12/29 05:59:48;;;;;;;;;3.75;3.75;;;;;12.67;70.94;100080.75;5113258;27;45529;-75
2021/12/29 06:02:14;;;;;;;;;4.00;3.50;;;;;12.63;70.90;100074.94;5082813;27;45593;-76
2021/12/29 06:04:39;;;;;;;;;4.00;4.00;;;;;12.67;70.78;100078.13;5094885;27;46353;-75
2021/12/29 06:07:05;;;;;;;;;3.25;3.00;;;;;12.68;70.79;100077.16;5104450;27;46967;-77
2021/12/29 06:09:30;;;;;;;;;3.25;3.25;;;;;12.63;70.88;100072.31;5097639;27;46164;-74
2021/12/29 06:11:56;;;;;;;;;3.00;3.00;;;;;12.68;70.88;100071.91;5107300;27;45497;-74
2021/12/29 06:14:21;;;;;;;;;3.75;3.75;;;;;12.63;70.89;100078.38;5094299;27;46237;-75
2021/12/29 06:16:47;;;;;;;;;5.00;4.00;;;;;12.66;71.17;100077.28;5094649;27;46645;-75
2021/12/29 06:19:12;;;;;;;;;3.00;3.00;;;;;12.60;71.00;100064.69;5094615;27;45744;-75
2021/12/29 06:21:37;;;;;;;;;5.00;2.50;;;;;12.64;71.39;100068.69;5105854;27;45743;-75
2021/12/29 06:24:03;;;;;;;;;5.50;4.25;;;;;12.65;71.08;100077.41;5107575;27;45698;-74
2021/12/29 06:26:29;;;;;;;;;3.75;2.25;;;;;12.65;71.44;100087.91;5094733;27;46298;-76
2021/12/29 06:28:54;;;;;;;;;3.00;3.00;;;;;12.63;71.17;100081.00;5095313;27;45699;-76
2021/12/29 06:31:19;;;;;;;;;2.25;2.00;;;;;12.57;71.59;100070.22;5092805;27;45685;-75
2021/12/29 06:33:46;;;;;;;;;3.00;2.00;;;;;12.59;71.33;100068.25;5092407;27;46236;-74
2021/12/29 06:36:12;;;;;;;;;4.50;3.75;;;;;12.60;71.32;100078.66;5100814;27;46169;-76
2021/12/29 06:38:37;;;;;;;;;2.00;2.00;;;;;12.63;71.73;100089.88;5107852;27;45686;-76
2021/12/29 06:41:03;;;;;;;;;3.00;2.75;;;;;12.62;71.80;100086.41;5095045;27;45682;-78
2021/12/29 06:43:28;;;;;;;;;3.00;3.00;;;;;12.61;71.77;100082.13;5106761;27;46620;-79
2021/12/29 06:45:54;;;;;;;;;3.25;2.25;;;;;12.63;71.59;100082.00;5089525;27;47781;-78
2021/12/29 06:48:19;;;;;;;;;3.00;2.50;;;;;12.58;71.53;100072.69;5101189;27;45725;-78
2021/12/29 06:50:45;;;;;;;;;3.00;3.00;;;;;12.63;71.57;100083.63;5101174;27;45916;-77
2021/12/29 06:53:11;;;;;;;;;3.25;3.00;;;;;12.63;72.01;100074.94;5112947;27;46008;-76
2021/12/29 06:55:36;;;;;;;;;3.50;3.50;;;;;12.57;71.63;100068.41;5100399;27;45668;-80
2021/12/29 06:58:02;;;;;;;;;3.00;2.75;;;;;12.56;72.02;100072.00;5088685;27;45802;-78
2021/12/29 07:00:28;;;;;;;;;4.00;3.25;;;;;12.63;72.20;100079.34;5102219;27;45876;-77
2021/12/29 07:02:53;;;;;;;;;3.00;3.00;;;;;12.61;72.04;100077.69;5098829;27;45759;-76
2021/12/29 07:05:19;;;;;;;;;3.00;3.00;;;;;12.58;72.03;100075.31;5101684;27;46975;-76
2021/12/29 07:07:46;;;;;;;;;3.00;3.00;;;;;12.60;72.22;100073.41;5107823;27;45902;-76
2021/12/29 07:10:12;;;;;;;;;3.75;3.75;;;;;12.60;72.04;100070.78;5075640;27;45952;-77
2021/12/29 07:12:37;;;;;;;;;4.00;3.00;;;;;12.57;72.16;100067.59;5095996;27;46560;-78
2021/12/29 07:15:03;;;;;;;;;2.50;2.50;;;;;12.63;71.97;100080.19;5107056;27;46949;-77
2021/12/29 07:17:28;;;;;;;;;3.50;3.50;;;;;12.59;72.28;100074.34;5094552;27;45754;-77
2021/12/29 07:19:53;;;;;;;;;2.25;2.25;;;;;12.60;72.28;100076.03;5075416;27;46006;-73
2021/12/29 07:22:19;;;;;;;;;2.50;2.50;;;;;12.66;72.25;100079.06;5092897;27;46389;-76
2021/12/29 07:24:44;;;;;;;;;4.00;4.00;;;;;12.66;72.30;100073.81;5093619;27;46037;-75
2021/12/29 07:27:09;;;;;;;;;4.75;3.00;;;;;12.68;72.10;100085.03;5075197;27;46230;-74
2021/12/29 07:29:37;;;;;;;;;5.00;4.00;;;;;12.51;72.36;100054.97;5105349;27;45871;-75
2021/12/29 07:32:03;;;;;;;;;4.25;4.25;;;;;12.67;72.27;100086.00;5093778;27;46385;-75
2021/12/29 07:34:28;;;;;;;;;4.00;3.00;;;;;12.71;72.48;100074.25;5105806;27;46214;-75
2021/12/29 07:36:54;;;;;;;;;4.00;4.00;;;;;12.71;72.25;100076.88;5093770;27;45807;-76
2021/12/29 07:39:20;;;;;;;;;3.00;3.00;;;;;12.70;72.32;100078.66;5093562;27;45684;-78
2021/12/29 07:41:46;;;;;;;;;3.00;3.00;;;;;12.61;72.55;100064.56;5092813;27;46535;-79
2021/12/29 07:44:13;;;;;;;;;2.25;1.00;;;;;12.73;72.66;100081.03;5084323;27;48155;-73
2021/12/29 07:46:41;;;;;;;;;4.00;4.00;;;;;12.71;72.67;100084.75;5095304;27;45704;-76
2021/12/29 07:49:06;;;;;;;;;3.50;3.25;;;;;12.74;72.62;100098.44;5099884;27;45530;-80
2021/12/29 07:51:31;;;;;;;;;4.75;4.00;;;;;12.72;72.47;100092.50;5078360;27;47294;-76
2021/12/29 07:53:58;;;;;;;;;3.25;3.25;;;;;12.75;72.59;100096.66;5106337;27;46210;-75
2021/12/29 07:56:23;;;;;;;;;3.75;3.75;;;;;12.73;72.56;100104.69;5093224;27;45671;-78
2021/12/29 07:58:49;;;;;;;;;4.00;4.00;;;;;12.77;72.81;100098.19;5102674;27;45883;-77
2021/12/29 08:01:15;;;;;;;;;5.00;4.00;;;;;12.74;72.76;100087.94;5113068;27;46648;-77
2021/12/29 08:03:40;;;;;;;;;5.00;4.00;;;;;12.80;72.51;100104.97;5109264;27;47105;-74
2021/12/29 08:06:06;;;;;;;;;4.00;3.25;;;;;12.81;72.77;100099.56;5097145;27;45737;-80
2021/12/29 08:08:31;;;;;;;;;3.75;3.75;;;;;12.79;72.92;100103.31;5093469;27;45882;-74
2021/12/29 08:10:58;;;;;;;;;3.50;3.25;;;;;12.83;72.97;100102.06;5076294;27;46266;-78
2021/12/29 08:13:23;;;;;;;;;3.00;3.00;;;;;12.83;72.95;100109.97;5105068;27;46607;-78
2021/12/29 08:15:48;;;;;;;;;6.00;5.00;;;;;12.86;72.70;100113.16;5094329;27;45538;-78
2021/12/29 08:18:15;;;;;;;;;7.50;5.75;;;;;12.88;73.08;100118.28;5097053;27;45795;-76
2021/12/29 08:20:41;;;;;;;;;5.25;4.25;;;;;12.88;72.74;100118.28;5100028;27;46523;-77
2021/12/29 08:23:08;;;;;;;;;4.00;4.00;;;;;12.90;72.99;100124.25;5092002;27;47097;-74
2021/12/29 08:25:34;;;;;;;;;5.25;5.00;;;;;12.94;72.80;100126.47;5092908;27;45669;-78
2021/12/29 08:27:59;;;;;;;;;9.00;6.00;;;;;12.94;72.91;100123.00;5093115;27;46039;-76
2021/12/29 08:30:26;;;;;;;;;5.75;5.00;;;;;12.96;72.71;100135.03;5098090;27;46024;-78
2021/12/29 08:32:52;;;;;;;;;4.75;4.25;;;;;12.97;72.69;100144.56;5109948;27;47139;-78
2021/12/29 08:35:17;;;;;;;;;4.50;4.50;;;;;12.96;72.93;100136.81;5095589;27;45623;-76
2021/12/29 08:37:43;;;;;;;;;5.00;5.00;;;;;12.99;73.08;100134.78;5099140;27;45900;-74
2021/12/29 08:40:10;;;;;;;;;4.75;4.75;;;;;13.01;73.24;100140.69;5096654;27;46503;-76
2021/12/29 08:42:36;;;;;;;;;3.75;3.00;;;;;12.97;73.07;100127.97;5094530;27;46848;-77
2021/12/29 08:45:04;;;;;;;;;4.00;4.00;;;;;13.04;73.06;100148.34;5094393;27;45805;-78
2021/12/29 08:47:29;;;;;;;;;4.00;4.00;;;;;13.04;73.07;100134.34;5090856;27;45681;-75
2021/12/29 08:49:55;;;;;;;;;5.00;3.50;;;;;13.06;73.13;100124.53;5096393;27;46367;-74
2021/12/29 08:52:20;;;;;;;;;4.75;4.00;;;;;13.06;73.09;100124.53;5095108;27;46216;-78
2021/12/29 08:54:46;;;;;;;;;5.75;5.00;;;;;13.07;73.61;100126.19;5097853;27;45587;-75
2021/12/29 08:57:11;;;;;;;;;6.00;4.00;;;;;13.03;73.04;100125.63;5105210;27;45554;-77
2021/12/29 08:59:37;;;;;;;;;5.00;4.75;;;;;13.09;73.19;100126.88;5107695;27;46386;-78
2021/12/29 09:02:03;;;;;;;;;4.00;4.00;;;;;13.10;73.29;100117.19;5095705;27;47282;-77
2021/12/29 09:04:28;;;;;;;;;5.75;5.00;;;;;13.11;73.31;100126.75;5109026;27;45605;-77
2021/12/29 09:06:53;;;;;;;;;6.00;4.50;;;;;13.11;73.29;100122.34;5108370;27;45716;-73
2021/12/29 09:09:20;;;;;;;;;6.00;5.00;;;;;13.15;73.43;100130.81;5096802;27;45593;-74
2021/12/29 09:11:46;;;;;;;;;4.25;4.25;;;;;13.16;73.49;100125.41;5098789;27;46176;-73
2021/12/29 09:14:11;;;;;;;;;4.50;4.25;;;;;13.17;73.69;100120.97;5101738;27;45751;-74
2021/12/29 09:16:36;;;;;;;;;5.50;4.50;;;;;13.20;73.71;100116.28;5103872;27;45821;-75
2021/12/29 09:19:04;;;;;;;;;6.00;5.00;;;;;13.13;73.77;100102.00;5109293;27;47586;-76
2021/12/29 09:21:31;;;;;;;;;5.25;4.00;;;;;13.28;73.90;100120.84;5107639;27;46207;-75
2021/12/29 09:23:56;;;;;;;;;4.00;3.00;;;;;13.30;73.36;100113.63;5100389;27;45813;-74
2021/12/29 09:26:22;;;;;;;;;4.00;4.00;;;;;13.31;73.65;100128.47;5097211;27;45631;-74
2021/12/29 09:28:49;;;;;;;;;5.25;4.75;;;;;13.35;73.55;100120.16;5093251;27;46631;-75
2021/12/29 09:31:16;;;;;;;;;4.00;3.00;;;;;13.37;73.52;100125.28;5111057;27;48227;-76
2021/12/29 09:33:43;;;;;;;;;2.00;2.00;;;;;13.42;73.61;100136.22;5105316;27;45687;-75
2021/12/29 09:36:08;;;;;;;;;2.50;2.00;;;;;13.45;73.76;100131.50;5108669;27;46108;-76
2021/12/29 09:38:36;;;;;;;;;2.00;2.00;;;;;13.47;73.83;100126.09;5102416;27;45671;-75
2021/12/29 09:41:03;;;;;;;;;4.00;2.00;;;;;13.49;73.77;100124.16;5096186;27;48098;-75
2021/12/29 09:43:29;;;;;;;;;3.00;2.25;;;;;13.52;73.87;100115.16;5088792;27;45732;-76
2021/12/29 09:45:55;;;;;;;;;2.50;2.50;;;;;13.57;74.48;100120.81;5104293;27;45929;-76
2021/12/29 09:48:21;;;;;;;;;2.00;1.00;;;;;13.59;74.19;100117.09;5102829;27;45787;-75
2021/12/29 09:50:47;;;;;;;;;3.00;3.00;;;;;13.57;74.23;100103.22;5094724;27;47062;-75
2021/12/29 09:53:14;;;;;;;;;1.75;1.75;;;;;13.62;74.31;100108.06;5104150;27;45792;-74
2021/12/29 09:55:40;;;;;;;;;2.00;2.00;;;;;13.68;74.46;100120.66;5102893;27;45684;-73
2021/12/29 09:58:07;;;;;;;;;2.00;2.00;;;;;13.59;74.49;100101.31;5089298;27;46978;-76
2021/12/29 10:00:45;;;;;;;;;2.00;2.00;;;;;13.76;74.52;100123.44;5103318;27;47270;-77
2021/12/29 10:03:13;;;;;;;;;2.00;2.00;;;;;13.78;75.01;100118.84;5095215;27;45931;-76
2021/12/29 10:05:41;;;;;;;;;2.00;2.00;;;;;13.81;74.66;100111.53;5069671;27;45729;-75
2021/12/29 10:08:11;;;;;;;;;4.00;3.00;;;;;13.88;74.67;100122.28;5094526;27;47290;-77
2021/12/29 10:10:40;;;;;;;;;4.25;3.50;;;;;13.93;74.97;100120.06;5096778;27;47264;-78
2021/12/29 10:13:08;;;;;;;;;1.75;1.50;;;;;13.98;75.02;100123.09;5114690;27;45714;-76
2021/12/29 10:15:39;;;;;;;;;1.00;1.00;;;;;14.02;75.08;100118.41;5080059;27;45839;-74
2021/12/29 10:18:27;;;;;;;;;1.50;1.50;;;;;14.07;74.74;100119.63;5094713;27;47202;-73
2021/12/29 10:20:58;;;;;;;;;2.75;2.75;;;;;14.12;75.00;100124.47;5101306;27;46021;-77
2021/12/29 10:23:31;;;;;;;;;1.75;1.75;;;;;14.16;75.10;100137.19;5114086;27;45725;-78
2021/12/29 10:26:05;;;;;;;;;0.00;0.00;;;;;14.14;75.68;100122.53;5103543;27;45610;-76
2021/12/29 10:28:33;;;;;;;;;0.00;0.00;;;;;14.19;75.30;100134.28;5097128;27;48541;-79
2021/12/29 10:31:03;;;;;;;;;1.75;1.00;;;;;14.29;75.73;100139.53;5102623;27;46162;-80
2021/12/29 10:33:38;;;;;;;;;0.00;0.00;;;;;14.29;75.52;100136.88;5100793;27;45695;-79
2021/12/29 10:36:30;;;;;;;;;0.75;0.00;;;;;14.37;76.01;100136.19;5103285;27;45560;-76
2021/12/29 10:39:11;;;;;;;;;0.00;0.00;;;;;14.41;76.00;100130.50;5099076;27;46829;-79
2021/12/29 10:42:05;;;;;;;;;0.75;0.00;;;;;14.47;76.30;100137.78;5077968;27;46322;-77
2021/12/29 10:44:47;;;;;;;;;1.00;0.00;;;;;14.52;76.30;100140.81;5091678;27;45776;-77
2021/12/29 10:47:18;;;;;;;;;0.00;0.00;;;;;14.54;76.53;100138.88;5094521;27;45502;-76
2021/12/29 10:49:55;;;;;;;;;0.00;0.00;;;;;14.59;76.73;100149.81;5094360;27;47580;-79
2021/12/29 10:52:40;;;;;;;;;0.75;0.00;;;;;14.61;76.92;100147.06;5074949;27;47095;-76
2021/12/29 10:55:14;;;;;;;;;0.00;0.00;;;;;14.62;77.51;100144.28;5103864;27;45687;-77
2021/12/29 10:57:40;;;;;;;;;0.00;0.00;;;;;14.69;77.71;100150.59;5096839;27;45645;-75
2021/12/29 11:00:12;;;;;;;;;0.00;0.00;;;;;14.73;77.51;100156.44;5105170;27;47244;-75
2021/12/29 11:02:37;;;;;;;;;0.00;0.00;;;;;14.75;77.79;100157.09;5096149;27;47470;-76
2021/12/29 11:05:08;;;;;;;;;1.00;0.00;;;;;14.78;78.14;100158.63;5110079;27;46129;-79
2021/12/29 11:07:35;;;;;;;;;0.00;0.00;;;;;14.80;78.08;100149.56;5096785;27;45462;-78
2021/12/29 11:10:12;;;;;;;;;0.00;0.00;;;;;14.82;78.28;100147.63;5093680;27;45518;-81
2021/12/29 11:12:54;;;;;;;;;0.00;0.00;;;;;14.86;78.13;100151.63;5094668;27;46548;-78
2021/12/29 11:15:20;;;;;;;;;0.00;0.00;;;;;14.93;78.53;100151.88;5099257;27;45699;-77
2021/12/29 11:17:46;;;;;;;;;1.00;0.00;;;;;14.94;78.18;100145.63;5094361;27;45661;-80
2021/12/29 11:20:18;;;;;;;;;0.00;0.00;;;;;15.01;78.49;100152.78;5093745;27;46325;-76
2021/12/29 11:22:43;;;;;;;;;0.00;0.00;;;;;15.03;78.37;100142.91;5093131;27;47118;-78
2021/12/29 11:25:08;;;;;;;;;1.25;1.00;;;;;15.10;78.44;100151.06;5093484;27;45770;-75
2021/12/29 11:27:35;;;;;;;;;0.50;0.50;;;;;15.14;78.79;100162.97;5095550;27;45602;-77